Accueil
METAR-TAF:

METAR-TAF

Aéroports :

Aéroport international de Rarotonga

Rarotonga, Îles Cook

latitude: 21-12S, longitude: 159-49W, altitude: 7 m

Observation

Le bulletin a été fait il y a 17 minutes, à 09:00 UTC
Vent 8 kt de ouest
Température 26°C
Humidité 70%
Pression 1006 hPa
Visibilité 10 km ou plus

METAR: NCRG 230900Z AUTO 27008KT 9999 NCD 26/20 Q1006

Heure: 23:17 (09:17 UTC)

Prévision

Le bulletin a été fait il y a 4 heures et 5 minutes, à 05:12 UTC
Prévision valable du 23 à 06 UTC au 24 à 06 UTC
Vent 8 kt de sud-ouest
Visibilité 10 km ou plus
Nuages épars à une hauteur de 2000 ft

TAF: NCRG 230512Z 2306/2406 22008KT 9999 SCT020

Observations et prévisions météorologiques de plus de 4000 aéroports (messages METAR et TAF).

Les stations disponibles sont représentées par des disques jaunes et rouges sur la carte.

Passer la souris dessus pour voir le nom de la station.

Cliquer dessus pour voir les observations et prévisions météorologiques.

Pour changer de carte: cliquez sur les boutons verts avec une croix noire pour zoomer, sur le bouton vert avec un tiret pour effectuer un zoom arrière, ou sur les flèches vertes pour les cartes adjacentes.


METAR-TAF: